sensor_id;sensor_type;location;lat;lon;timestamp;temperature;humidity
21108;DHT22;10712;52.944;9.098;2023-05-10T00:01:30;14.10;66.80
21108;DHT22;10712;52.944;9.098;2023-05-10T00:03:55;14.10;67.20
21108;DHT22;10712;52.944;9.098;2023-05-10T00:06:21;14.10;67.40
21108;DHT22;10712;52.944;9.098;2023-05-10T00:08:47;14.10;67.40
21108;DHT22;10712;52.944;9.098;2023-05-10T00:11:13;14.10;66.70
21108;DHT22;10712;52.944;9.098;2023-05-10T00:13:39;14.10;67.00
21108;DHT22;10712;52.944;9.098;2023-05-10T00:16:05;14.00;67.30
21108;DHT22;10712;52.944;9.098;2023-05-10T00:18:31;14.00;67.60
21108;DHT22;10712;52.944;9.098;2023-05-10T00:20:57;14.00;67.40
21108;DHT22;10712;52.944;9.098;2023-05-10T00:23:23;14.00;67.50
21108;DHT22;10712;52.944;9.098;2023-05-10T00:25:48;14.00;67.20
21108;DHT22;10712;52.944;9.098;2023-05-10T00:28:14;14.00;67.40
21108;DHT22;10712;52.944;9.098;2023-05-10T00:30:40;14.00;67.30
21108;DHT22;10712;52.944;9.098;2023-05-10T00:33:06;14.00;66.90
21108;DHT22;10712;52.944;9.098;2023-05-10T00:35:32;13.90;66.90
21108;DHT22;10712;52.944;9.098;2023-05-10T00:37:58;13.90;66.90
21108;DHT22;10712;52.944;9.098;2023-05-10T00:40:24;13.90;66.40
21108;DHT22;10712;52.944;9.098;2023-05-10T00:42:54;13.90;66.30
21108;DHT22;10712;52.944;9.098;2023-05-10T00:45:21;13.90;66.30
21108;DHT22;10712;52.944;9.098;2023-05-10T00:47:47;13.90;66.50
21108;DHT22;10712;52.944;9.098;2023-05-10T00:50:13;13.90;66.20
21108;DHT22;10712;52.944;9.098;2023-05-10T00:52:40;13.90;66.10
21108;DHT22;10712;52.944;9.098;2023-05-10T00:55:09;13.90;66.10
21108;DHT22;10712;52.944;9.098;2023-05-10T00:57:36;13.90;66.30
21108;DHT22;10712;52.944;9.098;2023-05-10T01:00:03;13.90;66.20
21108;DHT22;10712;52.944;9.098;2023-05-10T01:02:29;13.90;65.90
21108;DHT22;10712;52.944;9.098;2023-05-10T01:04:56;13.80;65.60
21108;DHT22;10712;52.944;9.098;2023-05-10T01:07:22;13.80;65.40
21108;DHT22;10712;52.944;9.098;2023-05-10T01:09:48;13.80;65.80
21108;DHT22;10712;52.944;9.098;2023-05-10T01:12:15;13.80;66.00
21108;DHT22;10712;52.944;9.098;2023-05-10T01:14:40;13.80;66.40
21108;DHT22;10712;52.944;9.098;2023-05-10T01:17:07;13.70;66.30
21108;DHT22;10712;52.944;9.098;2023-05-10T01:19:35;13.70;66.70
21108;DHT22;10712;52.944;9.098;2023-05-10T01:33:43;13.60;66.70
21108;DHT22;10712;52.944;9.098;2023-05-10T01:42:21;13.70;66.90
21108;DHT22;10712;52.944;9.098;2023-05-10T01:47:46;13.70;66.40
21108;DHT22;10712;52.944;9.098;2023-05-10T01:50:26;13.70;66.50
21108;DHT22;10712;52.944;9.098;2023-05-10T01:52:56;13.70;66.40
21108;DHT22;10712;52.944;9.098;2023-05-10T01:55:27;13.70;66.50
21108;DHT22;10712;52.944;9.098;2023-05-10T01:58:03;13.60;66.60
21108;DHT22;10712;52.944;9.098;2023-05-10T02:00:35;13.60;66.70
21108;DHT22;10712;52.944;9.098;2023-05-10T02:03:06;13.60;66.70
21108;DHT22;10712;52.944;9.098;2023-05-10T02:05:37;13.60;66.50
21108;DHT22;10712;52.944;9.098;2023-05-10T02:08:06;13.60;66.60
21108;DHT22;10712;52.944;9.098;2023-05-10T02:10:36;13.60;66.50
21108;DHT22;10712;52.944;9.098;2023-05-10T02:13:03;13.60;66.50
21108;DHT22;10712;52.944;9.098;2023-05-10T02:15:32;13.60;66.50
21108;DHT22;10712;52.944;9.098;2023-05-10T02:18:00;13.60;66.40
21108;DHT22;10712;52.944;9.098;2023-05-10T02:20:29;13.60;66.30
21108;DHT22;10712;52.944;9.098;2023-05-10T02:22:57;13.60;66.40
21108;DHT22;10712;52.944;9.098;2023-05-10T02:25:25;13.60;66.50
21108;DHT22;10712;52.944;9.098;2023-05-10T02:27:54;13.60;66.30
21108;DHT22;10712;52.944;9.098;2023-05-10T02:30:22;13.60;66.40
21108;DHT22;10712;52.944;9.098;2023-05-10T02:32:50;13.60;66.60
21108;DHT22;10712;52.944;9.098;2023-05-10T02:35:17;13.60;66.50
21108;DHT22;10712;52.944;9.098;2023-05-10T02:37:45;13.60;66.40
21108;DHT22;10712;52.944;9.098;2023-05-10T02:40:14;13.60;66.40
21108;DHT22;10712;52.944;9.098;2023-05-10T02:42:43;13.60;66.30
21108;DHT22;10712;52.944;9.098;2023-05-10T02:45:14;13.60;66.10
21108;DHT22;10712;52.944;9.098;2023-05-10T02:47:43;13.60;66.00
21108;DHT22;10712;52.944;9.098;2023-05-10T02:50:09;13.60;66.00
21108;DHT22;10712;52.944;9.098;2023-05-10T02:52:47;13.50;66.10
21108;DHT22;10712;52.944;9.098;2023-05-10T02:55:22;13.60;65.80
21108;DHT22;10712;52.944;9.098;2023-05-10T02:57:56;13.60;65.70
21108;DHT22;10712;52.944;9.098;2023-05-10T03:00:25;13.60;65.60
21108;DHT22;10712;52.944;9.098;2023-05-10T03:02:51;13.60;65.50
21108;DHT22;10712;52.944;9.098;2023-05-10T03:05:17;13.60;65.50
21108;DHT22;10712;52.944;9.098;2023-05-10T03:07:44;13.60;65.60
21108;DHT22;10712;52.944;9.098;2023-05-10T03:10:10;13.60;65.60
21108;DHT22;10712;52.944;9.098;2023-05-10T03:16:08;13.50;65.70
21108;DHT22;10712;52.944;9.098;2023-05-10T03:21:36;13.50;65.80
21108;DHT22;10712;52.944;9.098;2023-05-10T03:24:07;13.50;66.10
21108;DHT22;10712;52.944;9.098;2023-05-10T03:26:38;13.50;66.20
21108;DHT22;10712;52.944;9.098;2023-05-10T03:29:14;13.50;66.30
21108;DHT22;10712;52.944;9.098;2023-05-10T03:31:41;13.50;66.30
21108;DHT22;10712;52.944;9.098;2023-05-10T03:34:07;13.50;66.70
21108;DHT22;10712;52.944;9.098;2023-05-10T03:36:33;13.50;66.70
21108;DHT22;10712;52.944;9.098;2023-05-10T03:39:00;13.40;66.50
21108;DHT22;10712;52.944;9.098;2023-05-10T03:41:26;13.40;66.50
21108;DHT22;10712;52.944;9.098;2023-05-10T03:43:53;13.40;66.70
21108;DHT22;10712;52.944;9.098;2023-05-10T03:46:19;13.40;66.80
21108;DHT22;10712;52.944;9.098;2023-05-10T03:48:45;13.40;67.10
21108;DHT22;10712;52.944;9.098;2023-05-10T03:51:11;13.40;67.50
21108;DHT22;10712;52.944;9.098;2023-05-10T03:53:37;13.40;67.50
21108;DHT22;10712;52.944;9.098;2023-05-10T03:56:03;13.40;67.70
21108;DHT22;10712;52.944;9.098;2023-05-10T03:58:29;13.40;67.80
21108;DHT22;10712;52.944;9.098;2023-05-10T04:00:55;13.40;67.90
21108;DHT22;10712;52.944;9.098;2023-05-10T04:03:21;13.40;67.90
21108;DHT22;10712;52.944;9.098;2023-05-10T04:05:47;13.40;68.00
21108;DHT22;10712;52.944;9.098;2023-05-10T04:08:13;13.40;68.40
21108;DHT22;10712;52.944;9.098;2023-05-10T04:10:40;13.40;68.50
21108;DHT22;10712;52.944;9.098;2023-05-10T04:13:06;13.30;68.90
21108;DHT22;10712;52.944;9.098;2023-05-10T04:15:32;13.30;69.30
21108;DHT22;10712;52.944;9.098;2023-05-10T04:17:57;13.30;69.50
21108;DHT22;10712;52.944;9.098;2023-05-10T04:20:23;13.30;69.90
21108;DHT22;10712;52.944;9.098;2023-05-10T04:22:49;13.30;69.90
21108;DHT22;10712;52.944;9.098;2023-05-10T04:25:15;13.30;70.10
21108;DHT22;10712;52.944;9.098;2023-05-10T04:27:41;13.30;70.40
21108;DHT22;10712;52.944;9.098;2023-05-10T04:30:07;13.30;70.70
21108;DHT22;10712;52.944;9.098;2023-05-10T04:32:33;13.30;71.10
21108;DHT22;10712;52.944;9.098;2023-05-10T04:34:59;13.30;71.20
21108;DHT22;10712;52.944;9.098;2023-05-10T04:37:25;13.30;71.60
21108;DHT22;10712;52.944;9.098;2023-05-10T04:39:51;13.30;71.90
21108;DHT22;10712;52.944;9.098;2023-05-10T04:42:16;13.20;72.20
21108;DHT22;10712;52.944;9.098;2023-05-10T04:44:42;13.20;72.60
21108;DHT22;10712;52.944;9.098;2023-05-10T04:47:08;13.20;73.00
21108;DHT22;10712;52.944;9.098;2023-05-10T04:49:34;13.20;73.50
21108;DHT22;10712;52.944;9.098;2023-05-10T04:52:00;13.20;73.80
21108;DHT22;10712;52.944;9.098;2023-05-10T04:54:26;13.20;74.30
21108;DHT22;10712;52.944;9.098;2023-05-10T04:56:52;13.20;74.80
21108;DHT22;10712;52.944;9.098;2023-05-10T04:59:18;13.10;75.20
21108;DHT22;10712;52.944;9.098;2023-05-10T05:01:43;13.10;75.90
21108;DHT22;10712;52.944;9.098;2023-05-10T05:04:09;13.10;76.20
21108;DHT22;10712;52.944;9.098;2023-05-10T05:06:35;13.10;76.60
21108;DHT22;10712;52.944;9.098;2023-05-10T05:09:01;13.10;76.80
21108;DHT22;10712;52.944;9.098;2023-05-10T05:11:26;13.10;77.40
21108;DHT22;10712;52.944;9.098;2023-05-10T05:13:52;13.10;77.60
21108;DHT22;10712;52.944;9.098;2023-05-10T05:16:18;13.10;78.00
21108;DHT22;10712;52.944;9.098;2023-05-10T05:18:44;13.10;78.20
21108;DHT22;10712;52.944;9.098;2023-05-10T05:21:16;13.00;78.70
21108;DHT22;10712;52.944;9.098;2023-05-10T05:23:43;13.00;78.90
21108;DHT22;10712;52.944;9.098;2023-05-10T05:26:09;13.00;79.10
21108;DHT22;10712;52.944;9.098;2023-05-10T05:28:35;13.00;79.30
21108;DHT22;10712;52.944;9.098;2023-05-10T05:31:03;13.00;79.40
21108;DHT22;10712;52.944;9.098;2023-05-10T05:33:31;13.00;79.50
21108;DHT22;10712;52.944;9.098;2023-05-10T05:36:00;13.00;79.70
21108;DHT22;10712;52.944;9.098;2023-05-10T05:38:27;13.00;80.00
21108;DHT22;10712;52.944;9.098;2023-05-10T05:40:53;13.00;80.10
21108;DHT22;10712;52.944;9.098;2023-05-10T05:43:19;13.00;80.10
21108;DHT22;10712;52.944;9.098;2023-05-10T05:45:44;12.90;80.00
21108;DHT22;10712;52.944;9.098;2023-05-10T05:48:10;12.90;80.30
21108;DHT22;10712;52.944;9.098;2023-05-10T05:50:36;12.90;80.60
21108;DHT22;10712;52.944;9.098;2023-05-10T05:53:02;12.90;80.90
21108;DHT22;10712;52.944;9.098;2023-05-10T05:55:28;12.90;81.10
21108;DHT22;10712;52.944;9.098;2023-05-10T05:57:55;12.90;81.10
21108;DHT22;10712;52.944;9.098;2023-05-10T06:00:20;12.90;81.30
21108;DHT22;10712;52.944;9.098;2023-05-10T06:02:47;12.80;81.20
21108;DHT22;10712;52.944;9.098;2023-05-10T06:05:13;12.80;81.30
21108;DHT22;10712;52.944;9.098;2023-05-10T06:07:39;12.80;81.50
21108;DHT22;10712;52.944;9.098;2023-05-10T06:10:08;12.80;82.20
21108;DHT22;10712;52.944;9.098;2023-05-10T06:12:34;12.90;82.90
21108;DHT22;10712;52.944;9.098;2023-05-10T06:15:00;12.90;82.70
21108;DHT22;10712;52.944;9.098;2023-05-10T06:17:26;12.90;83.00
21108;DHT22;10712;52.944;9.098;2023-05-10T06:19:52;12.90;83.10
21108;DHT22;10712;52.944;9.098;2023-05-10T06:22:18;12.80;83.20
21108;DHT22;10712;52.944;9.098;2023-05-10T06:24:44;12.80;83.50
21108;DHT22;10712;52.944;9.098;2023-05-10T06:27:10;12.80;83.50
21108;DHT22;10712;52.944;9.098;2023-05-10T06:29:36;12.80;83.50
21108;DHT22;10712;52.944;9.098;2023-05-10T06:32:01;12.80;83.80
21108;DHT22;10712;52.944;9.098;2023-05-10T06:34:27;12.80;84.20
21108;DHT22;10712;52.944;9.098;2023-05-10T06:36:53;12.70;84.50
21108;DHT22;10712;52.944;9.098;2023-05-10T06:39:19;12.70;84.70
21108;DHT22;10712;52.944;9.098;2023-05-10T06:41:45;12.70;84.90
21108;DHT22;10712;52.944;9.098;2023-05-10T06:44:11;12.70;85.30
21108;DHT22;10712;52.944;9.098;2023-05-10T06:46:36;12.60;85.40
21108;DHT22;10712;52.944;9.098;2023-05-10T06:49:02;12.60;85.80
21108;DHT22;10712;52.944;9.098;2023-05-10T06:51:28;12.60;86.00
21108;DHT22;10712;52.944;9.098;2023-05-10T06:53:54;12.50;86.20
21108;DHT22;10712;52.944;9.098;2023-05-10T06:56:20;12.50;86.40
21108;DHT22;10712;52.944;9.098;2023-05-10T06:58:47;12.50;86.40
21108;DHT22;10712;52.944;9.098;2023-05-10T07:01:13;12.50;86.60
21108;DHT22;10712;52.944;9.098;2023-05-10T07:03:39;12.50;86.60
21108;DHT22;10712;52.944;9.098;2023-05-10T07:06:05;12.50;86.80
21108;DHT22;10712;52.944;9.098;2023-05-10T07:08:33;12.50;86.60
21108;DHT22;10712;52.944;9.098;2023-05-10T07:11:01;12.50;86.80
21108;DHT22;10712;52.944;9.098;2023-05-10T07:13:32;12.50;87.40
21108;DHT22;10712;52.944;9.098;2023-05-10T07:15:59;12.50;87.30
21108;DHT22;10712;52.944;9.098;2023-05-10T07:18:25;12.50;87.50
21108;DHT22;10712;52.944;9.098;2023-05-10T07:20:52;12.50;87.70
21108;DHT22;10712;52.944;9.098;2023-05-10T07:23:18;12.50;87.80
21108;DHT22;10712;52.944;9.098;2023-05-10T07:25:48;12.50;87.70
21108;DHT22;10712;52.944;9.098;2023-05-10T07:28:16;12.50;87.60
21108;DHT22;10712;52.944;9.098;2023-05-10T07:30:43;12.50;87.70
21108;DHT22;10712;52.944;9.098;2023-05-10T07:33:10;12.60;87.80
21108;DHT22;10712;52.944;9.098;2023-05-10T07:35:38;12.60;88.00
21108;DHT22;10712;52.944;9.098;2023-05-10T07:38:04;12.60;88.20
21108;DHT22;10712;52.944;9.098;2023-05-10T07:40:30;12.60;88.40
21108;DHT22;10712;52.944;9.098;2023-05-10T07:42:56;12.70;88.50
21108;DHT22;10712;52.944;9.098;2023-05-10T07:45:23;12.70;88.40
21108;DHT22;10712;52.944;9.098;2023-05-10T07:47:49;12.70;88.20
21108;DHT22;10712;52.944;9.098;2023-05-10T07:50:15;12.70;88.20
21108;DHT22;10712;52.944;9.098;2023-05-10T07:52:41;12.70;88.50
21108;DHT22;10712;52.944;9.098;2023-05-10T07:55:07;12.70;88.80
21108;DHT22;10712;52.944;9.098;2023-05-10T07:57:34;12.80;88.90
21108;DHT22;10712;52.944;9.098;2023-05-10T08:00:00;12.80;88.90
21108;DHT22;10712;52.944;9.098;2023-05-10T08:02:26;12.90;89.20
21108;DHT22;10712;52.944;9.098;2023-05-10T08:04:52;12.90;89.40
21108;DHT22;10712;52.944;9.098;2023-05-10T08:07:18;13.00;89.60
21108;DHT22;10712;52.944;9.098;2023-05-10T08:09:44;13.00;89.80
21108;DHT22;10712;52.944;9.098;2023-05-10T08:12:09;13.00;89.80
21108;DHT22;10712;52.944;9.098;2023-05-10T08:14:35;13.10;89.80
21108;DHT22;10712;52.944;9.098;2023-05-10T08:17:04;13.10;89.80
21108;DHT22;10712;52.944;9.098;2023-05-10T08:19:30;13.20;90.00
21108;DHT22;10712;52.944;9.098;2023-05-10T08:21:56;13.20;90.20
21108;DHT22;10712;52.944;9.098;2023-05-10T08:24:22;13.30;90.60
21108;DHT22;10712;52.944;9.098;2023-05-10T08:26:48;13.30;90.50
21108;DHT22;10712;52.944;9.098;2023-05-10T08:29:14;13.40;90.60
21108;DHT22;10712;52.944;9.098;2023-05-10T08:31:40;13.40;90.80
21108;DHT22;10712;52.944;9.098;2023-05-10T08:34:07;13.50;90.90
21108;DHT22;10712;52.944;9.098;2023-05-10T08:36:33;13.50;90.90
21108;DHT22;10712;52.944;9.098;2023-05-10T08:38:59;13.60;91.30
21108;DHT22;10712;52.944;9.098;2023-05-10T08:41:24;13.60;91.30
21108;DHT22;10712;52.944;9.098;2023-05-10T08:43:54;13.70;91.40
21108;DHT22;10712;52.944;9.098;2023-05-10T08:46:22;13.70;91.30
21108;DHT22;10712;52.944;9.098;2023-05-10T08:48:49;13.80;91.40
21108;DHT22;10712;52.944;9.098;2023-05-10T08:51:23;13.80;91.50
21108;DHT22;10712;52.944;9.098;2023-05-10T08:53:53;13.90;91.60
21108;DHT22;10712;52.944;9.098;2023-05-10T08:56:19;14.00;91.80
21108;DHT22;10712;52.944;9.098;2023-05-10T08:58:45;14.00;91.80
21108;DHT22;10712;52.944;9.098;2023-05-10T09:01:13;14.10;91.80
21108;DHT22;10712;52.944;9.098;2023-05-10T09:03:42;14.20;91.90
21108;DHT22;10712;52.944;9.098;2023-05-10T09:06:09;14.20;92.00
21108;DHT22;10712;52.944;9.098;2023-05-10T09:08:38;14.30;91.90
21108;DHT22;10712;52.944;9.098;2023-05-10T09:11:05;14.30;92.10
21108;DHT22;10712;52.944;9.098;2023-05-10T09:13:32;14.40;92.10
21108;DHT22;10712;52.944;9.098;2023-05-10T09:15:59;14.50;92.00
21108;DHT22;10712;52.944;9.098;2023-05-10T09:18:25;14.50;92.00
21108;DHT22;10712;52.944;9.098;2023-05-10T09:20:51;14.50;92.00
21108;DHT22;10712;52.944;9.098;2023-05-10T09:23:17;14.60;92.00
21108;DHT22;10712;52.944;9.098;2023-05-10T09:25:43;14.60;91.80
21108;DHT22;10712;52.944;9.098;2023-05-10T09:28:09;14.70;91.90
21108;DHT22;10712;52.944;9.098;2023-05-10T09:30:35;14.70;91.60
21108;DHT22;10712;52.944;9.098;2023-05-10T09:33:02;14.70;91.50
21108;DHT22;10712;52.944;9.098;2023-05-10T09:35:29;14.80;91.50
21108;DHT22;10712;52.944;9.098;2023-05-10T09:38:00;14.80;91.60
21108;DHT22;10712;52.944;9.098;2023-05-10T09:40:29;14.90;91.40
21108;DHT22;10712;52.944;9.098;2023-05-10T09:42:58;14.90;91.20
21108;DHT22;10712;52.944;9.098;2023-05-10T09:45:31;14.90;91.20
21108;DHT22;10712;52.944;9.098;2023-05-10T09:48:00;14.90;91.00
21108;DHT22;10712;52.944;9.098;2023-05-10T09:50:28;15.00;91.00
21108;DHT22;10712;52.944;9.098;2023-05-10T09:53:03;15.00;91.00
21108;DHT22;10712;52.944;9.098;2023-05-10T09:58:05;15.00;90.40
21108;DHT22;10712;52.944;9.098;2023-05-10T10:00:39;15.10;90.50
21108;DHT22;10712;52.944;9.098;2023-05-10T10:03:11;15.10;90.40
21108;DHT22;10712;52.944;9.098;2023-05-10T10:05:42;15.10;90.20
21108;DHT22;10712;52.944;9.098;2023-05-10T10:08:09;15.10;90.20
21108;DHT22;10712;52.944;9.098;2023-05-10T10:10:35;15.10;90.10
21108;DHT22;10712;52.944;9.098;2023-05-10T10:13:02;15.10;90.00
21108;DHT22;10712;52.944;9.098;2023-05-10T10:15:28;15.20;89.60
21108;DHT22;10712;52.944;9.098;2023-05-10T10:17:54;15.20;89.80
21108;DHT22;10712;52.944;9.098;2023-05-10T10:20:22;15.30;89.80
21108;DHT22;10712;52.944;9.098;2023-05-10T10:22:49;15.30;89.50
21108;DHT22;10712;52.944;9.098;2023-05-10T10:25:16;15.40;89.10
21108;DHT22;10712;52.944;9.098;2023-05-10T10:35:45;15.60;87.90
21108;DHT22;10712;52.944;9.098;2023-05-10T10:38:12;15.60;87.20
21108;DHT22;10712;52.944;9.098;2023-05-10T10:40:38;15.70;86.80
21108;DHT22;10712;52.944;9.098;2023-05-10T10:43:24;15.70;86.90
21108;DHT22;10712;52.944;9.098;2023-05-10T10:46:16;15.80;86.80
21108;DHT22;10712;52.944;9.098;2023-05-10T10:48:50;15.80;86.50
21108;DHT22;10712;52.944;9.098;2023-05-10T10:51:38;15.80;86.00
21108;DHT22;10712;52.944;9.098;2023-05-10T10:54:11;15.80;86.10
21108;DHT22;10712;52.944;9.098;2023-05-10T10:56:37;15.80;86.00
21108;DHT22;10712;52.944;9.098;2023-05-10T10:59:03;15.80;86.10
21108;DHT22;10712;52.944;9.098;2023-05-10T11:01:35;15.70;86.20
21108;DHT22;10712;52.944;9.098;2023-05-10T11:06:31;15.60;86.20
21108;DHT22;10712;52.944;9.098;2023-05-10T11:08:58;15.60;86.40
21108;DHT22;10712;52.944;9.098;2023-05-10T11:11:25;15.60;86.80
21108;DHT22;10712;52.944;9.098;2023-05-10T11:13:51;15.50;87.20
21108;DHT22;10712;52.944;9.098;2023-05-10T11:16:21;15.50;87.00
21108;DHT22;10712;52.944;9.098;2023-05-10T11:19:06;15.50;87.30
21108;DHT22;10712;52.944;9.098;2023-05-10T11:24:29;15.70;87.60
21108;DHT22;10712;52.944;9.098;2023-05-10T11:26:56;15.70;87.30
21108;DHT22;10712;52.944;9.098;2023-05-10T11:29:22;15.80;87.10
21108;DHT22;10712;52.944;9.098;2023-05-10T11:31:49;15.80;87.20
21108;DHT22;10712;52.944;9.098;2023-05-10T11:34:32;15.80;86.80
21108;DHT22;10712;52.944;9.098;2023-05-10T11:37:00;15.80;85.90
21108;DHT22;10712;52.944;9.098;2023-05-10T11:39:30;15.90;85.60
21108;DHT22;10712;52.944;9.098;2023-05-10T11:41:58;15.90;85.60
21108;DHT22;10712;52.944;9.098;2023-05-10T11:44:30;15.90;85.20
21108;DHT22;10712;52.944;9.098;2023-05-10T11:46:59;16.00;85.40
21108;DHT22;10712;52.944;9.098;2023-05-10T11:49:26;16.00;85.50
21108;DHT22;10712;52.944;9.098;2023-05-10T11:51:52;16.10;85.40
21108;DHT22;10712;52.944;9.098;2023-05-10T11:54:17;16.10;84.70
21108;DHT22;10712;52.944;9.098;2023-05-10T11:56:43;16.10;84.70
21108;DHT22;10712;52.944;9.098;2023-05-10T11:59:10;16.20;84.90
21108;DHT22;10712;52.944;9.098;2023-05-10T12:01:36;16.30;85.20
21108;DHT22;10712;52.944;9.098;2023-05-10T12:04:02;16.40;85.20
21108;DHT22;10712;52.944;9.098;2023-05-10T12:06:30;16.40;85.30
21108;DHT22;10712;52.944;9.098;2023-05-10T12:08:58;16.50;85.00
21108;DHT22;10712;52.944;9.098;2023-05-10T12:11:25;16.60;84.50
21108;DHT22;10712;52.944;9.098;2023-05-10T12:13:53;16.60;84.00
21108;DHT22;10712;52.944;9.098;2023-05-10T12:18:51;16.50;83.50
21108;DHT22;10712;52.944;9.098;2023-05-10T12:21:20;16.50;83.60
21108;DHT22;10712;52.944;9.098;2023-05-10T12:23:48;16.40;84.00
21108;DHT22;10712;52.944;9.098;2023-05-10T12:26:18;16.40;84.40
21108;DHT22;10712;52.944;9.098;2023-05-10T12:28:47;16.40;84.90
21108;DHT22;10712;52.944;9.098;2023-05-10T12:31:13;16.50;84.50
21108;DHT22;10712;52.944;9.098;2023-05-10T12:33:40;16.50;83.90
21108;DHT22;10712;52.944;9.098;2023-05-10T12:36:11;16.50;84.30
21108;DHT22;10712;52.944;9.098;2023-05-10T12:38:40;16.50;84.50
21108;DHT22;10712;52.944;9.098;2023-05-10T12:41:10;16.60;84.70
21108;DHT22;10712;52.944;9.098;2023-05-10T12:43:37;16.60;84.90
21108;DHT22;10712;52.944;9.098;2023-05-10T12:48:32;16.60;84.10
21108;DHT22;10712;52.944;9.098;2023-05-10T12:50:59;16.50;83.80
21108;DHT22;10712;52.944;9.098;2023-05-10T12:53:26;16.40;84.10
21108;DHT22;10712;52.944;9.098;2023-05-10T12:55:52;16.30;84.30
21108;DHT22;10712;52.944;9.098;2023-05-10T12:58:18;16.20;84.60
21108;DHT22;10712;52.944;9.098;2023-05-10T13:00:45;16.00;85.10
21108;DHT22;10712;52.944;9.098;2023-05-10T13:03:11;16.00;85.80
21108;DHT22;10712;52.944;9.098;2023-05-10T13:05:37;15.90;86.00
21108;DHT22;10712;52.944;9.098;2023-05-10T13:08:04;15.90;86.50
21108;DHT22;10712;52.944;9.098;2023-05-10T13:10:30;16.00;87.00
21108;DHT22;10712;52.944;9.098;2023-05-10T13:12:57;16.00;87.30
21108;DHT22;10712;52.944;9.098;2023-05-10T13:15:25;16.10;87.80
21108;DHT22;10712;52.944;9.098;2023-05-10T13:17:52;16.10;87.60
21108;DHT22;10712;52.944;9.098;2023-05-10T13:20:18;16.20;87.50
21108;DHT22;10712;52.944;9.098;2023-05-10T13:22:45;16.30;87.20
21108;DHT22;10712;52.944;9.098;2023-05-10T13:25:11;16.40;86.70
21108;DHT22;10712;52.944;9.098;2023-05-10T13:27:40;16.50;85.70
21108;DHT22;10712;52.944;9.098;2023-05-10T13:30:07;16.50;85.00
21108;DHT22;10712;52.944;9.098;2023-05-10T13:32:34;16.50;84.70
21108;DHT22;10712;52.944;9.098;2023-05-10T13:35:01;16.50;84.60
21108;DHT22;10712;52.944;9.098;2023-05-10T13:37:29;16.50;84.80
21108;DHT22;10712;52.944;9.098;2023-05-10T13:39:55;16.50;85.00
21108;DHT22;10712;52.944;9.098;2023-05-10T13:42:24;16.60;84.70
21108;DHT22;10712;52.944;9.098;2023-05-10T13:44:50;16.60;84.20
21108;DHT22;10712;52.944;9.098;2023-05-10T13:47:16;16.60;83.50
21108;DHT22;10712;52.944;9.098;2023-05-10T13:49:42;16.60;83.10
21108;DHT22;10712;52.944;9.098;2023-05-10T13:52:08;16.50;83.30
21108;DHT22;10712;52.944;9.098;2023-05-10T13:54:36;16.50;83.60
21108;DHT22;10712;52.944;9.098;2023-05-10T13:57:02;16.40;84.40
21108;DHT22;10712;52.944;9.098;2023-05-10T13:59:29;16.40;84.00
21108;DHT22;10712;52.944;9.098;2023-05-10T14:01:57;16.30;83.80
21108;DHT22;10712;52.944;9.098;2023-05-10T14:04:24;16.20;84.30
21108;DHT22;10712;52.944;9.098;2023-05-10T14:06:50;16.20;84.50
21108;DHT22;10712;52.944;9.098;2023-05-10T14:09:16;16.20;85.00
21108;DHT22;10712;52.944;9.098;2023-05-10T14:11:42;16.30;85.10
21108;DHT22;10712;52.944;9.098;2023-05-10T14:14:09;16.30;85.40
21108;DHT22;10712;52.944;9.098;2023-05-10T14:16:35;16.30;85.30
21108;DHT22;10712;52.944;9.098;2023-05-10T14:19:01;16.30;85.30
21108;DHT22;10712;52.944;9.098;2023-05-10T14:21:27;16.30;84.80
21108;DHT22;10712;52.944;9.098;2023-05-10T14:23:56;16.30;84.50
21108;DHT22;10712;52.944;9.098;2023-05-10T14:26:22;16.30;83.90
21108;DHT22;10712;52.944;9.098;2023-05-10T14:28:48;16.30;84.40
21108;DHT22;10712;52.944;9.098;2023-05-10T14:31:14;16.40;84.10
21108;DHT22;10712;52.944;9.098;2023-05-10T14:33:42;16.40;84.10
21108;DHT22;10712;52.944;9.098;2023-05-10T14:36:08;16.40;84.40
21108;DHT22;10712;52.944;9.098;2023-05-10T14:38:34;16.50;83.70
21108;DHT22;10712;52.944;9.098;2023-05-10T14:41:00;16.50;83.90
21108;DHT22;10712;52.944;9.098;2023-05-10T14:43:26;16.60;83.70
21108;DHT22;10712;52.944;9.098;2023-05-10T14:45:52;16.70;83.30
21108;DHT22;10712;52.944;9.098;2023-05-10T14:48:19;16.70;83.10
21108;DHT22;10712;52.944;9.098;2023-05-10T14:50:46;16.80;82.40
21108;DHT22;10712;52.944;9.098;2023-05-10T14:53:12;16.90;81.90
21108;DHT22;10712;52.944;9.098;2023-05-10T14:55:38;16.90;82.40
21108;DHT22;10712;52.944;9.098;2023-05-10T14:58:04;17.00;81.20
21108;DHT22;10712;52.944;9.098;2023-05-10T15:00:31;17.00;80.60
21108;DHT22;10712;52.944;9.098;2023-05-10T15:02:57;17.10;81.00
21108;DHT22;10712;52.944;9.098;2023-05-10T15:05:23;17.10;80.00
21108;DHT22;10712;52.944;9.098;2023-05-10T15:07:49;17.10;80.30
21108;DHT22;10712;52.944;9.098;2023-05-10T15:10:15;17.10;80.00
21108;DHT22;10712;52.944;9.098;2023-05-10T15:12:41;17.10;80.60
21108;DHT22;10712;52.944;9.098;2023-05-10T15:15:07;17.10;80.50
21108;DHT22;10712;52.944;9.098;2023-05-10T15:17:33;17.10;80.50
21108;DHT22;10712;52.944;9.098;2023-05-10T15:19:59;17.10;80.30
21108;DHT22;10712;52.944;9.098;2023-05-10T15:22:27;17.00;80.10
21108;DHT22;10712;52.944;9.098;2023-05-10T15:24:54;17.00;79.70
21108;DHT22;10712;52.944;9.098;2023-05-10T15:27:20;17.00;80.00
21108;DHT22;10712;52.944;9.098;2023-05-10T15:29:45;17.00;80.00
21108;DHT22;10712;52.944;9.098;2023-05-10T15:32:11;17.00;80.00
21108;DHT22;10712;52.944;9.098;2023-05-10T15:34:37;17.00;80.10
21108;DHT22;10712;52.944;9.098;2023-05-10T15:37:03;17.00;80.20
21108;DHT22;10712;52.944;9.098;2023-05-10T15:39:29;17.00;80.00
21108;DHT22;10712;52.944;9.098;2023-05-10T15:41:54;17.00;80.10
21108;DHT22;10712;52.944;9.098;2023-05-10T15:44:20;17.00;80.40
21108;DHT22;10712;52.944;9.098;2023-05-10T15:46:46;17.10;80.20
21108;DHT22;10712;52.944;9.098;2023-05-10T15:49:12;17.00;80.00
21108;DHT22;10712;52.944;9.098;2023-05-10T15:51:37;17.00;80.20
21108;DHT22;10712;52.944;9.098;2023-05-10T15:54:03;17.00;79.70
21108;DHT22;10712;52.944;9.098;2023-05-10T15:56:32;17.00;79.50
21108;DHT22;10712;52.944;9.098;2023-05-10T15:58:58;16.90;79.60
21108;DHT22;10712;52.944;9.098;2023-05-10T16:01:24;16.90;79.80
21108;DHT22;10712;52.944;9.098;2023-05-10T16:03:50;16.90;79.80
21108;DHT22;10712;52.944;9.098;2023-05-10T16:06:16;16.90;79.40
21108;DHT22;10712;52.944;9.098;2023-05-10T16:08:42;16.90;78.60
21108;DHT22;10712;52.944;9.098;2023-05-10T16:11:07;16.80;79.20
21108;DHT22;10712;52.944;9.098;2023-05-10T16:13:34;16.80;79.40
21108;DHT22;10712;52.944;9.098;2023-05-10T16:15:59;16.80;79.40
21108;DHT22;10712;52.944;9.098;2023-05-10T16:18:27;16.80;78.90